Time;durP1;ratioP1;P1;durP2;ratioP2;P2;SDS_P1;SDS_P2;PMS_P1;PMS_P2;Temp;Humidity;BMP_temperature;BMP_pressure;BME280_temperature;BME280_humidity;BME280_pressure;Samples;Min_cycle;Max_cycle;Signal;HPM_P1;HPM_P2
2023/07/30 00:09:51;;;;;;;3.50;2.30;;;22.00;98.20;;;;;;21001651;28;20640;-63
2023/07/30 00:19:53;;;;;;;4.17;1.70;;;21.90;98.50;;;;;;21000696;28;20235;-63
2023/07/30 00:29:54;;;;;;;2.80;1.30;;;21.70;98.70;;;;;;21000147;28;20215;-62
2023/07/30 00:39:56;;;;;;;1.63;1.40;;;21.50;98.50;;;;;;20999119;28;20725;-64
2023/07/30 00:49:58;;;;;;;6.23;1.50;;;21.10;98.40;;;;;;20998320;28;20206;-64
2023/07/30 01:00:04;;;;;;;2.77;1.00;;;21.00;98.50;;;;;;20997757;28;20266;-63
2023/07/30 01:10:06;;;;;;;3.17;1.20;;;21.00;98.40;;;;;;20996909;28;20234;-62
2023/07/30 01:20:08;;;;;;;2.80;1.30;;;20.80;98.50;;;;;;20997081;28;20230;-63
2023/07/30 01:30:18;;;;;;;1.63;1.10;;;20.70;98.80;;;;;;20996108;28;20204;-64
2023/07/30 01:40:21;;;;;;;1.33;1.17;;;20.70;98.80;;;;;;21006574;28;20286;-63
2023/07/30 01:50:22;;;;;;;1.57;1.47;;;20.40;98.60;;;;;;21045617;28;20241;-63
2023/07/30 02:00:24;;;;;;;1.40;1.20;;;20.40;99.00;;;;;;21078542;28;20241;-63
2023/07/30 02:10:26;;;;;;;3.67;1.43;;;20.40;99.40;;;;;;21082463;28;20284;-62
2023/07/30 02:20:28;;;;;;;4.67;1.90;;;20.30;99.90;;;;;;21094388;28;20290;-63
2023/07/30 02:30:30;;;;;;;3.00;2.10;;;20.30;99.90;;;;;;21093922;28;20297;-67
2023/07/30 02:40:31;;;;;;;3.07;2.20;;;20.30;99.90;;;;;;21092559;28;20313;-74
2023/07/30 02:50:33;;;;;;;2.67;2.17;;;20.30;99.90;;;;;;21091769;28;20212;-72
2023/07/30 03:00:35;;;;;;;4.07;2.50;;;20.30;99.90;;;;;;21091451;28;20244;-72
2023/07/30 03:10:37;;;;;;;4.20;2.37;;;20.30;99.90;;;;;;21090226;28;20313;-73
2023/07/30 03:20:39;;;;;;;2.93;2.37;;;20.30;99.90;;;;;;21088369;28;20707;-70
2023/07/30 03:30:40;;;;;;;2.50;2.30;;;20.30;99.90;;;;;;21089026;28;20289;-63
2023/07/30 03:40:42;;;;;;;2.93;2.23;;;20.40;99.90;;;;;;21087840;28;20313;-64
2023/07/30 03:50:44;;;;;;;2.43;2.10;;;20.30;99.90;;;;;;21079739;28;20327;-65
2023/07/30 04:00:45;;;;;;;2.70;2.40;;;20.30;99.90;;;;;;21041394;28;20248;-64
2023/07/30 04:10:47;;;;;;;4.40;2.53;;;20.20;99.90;;;;;;21001662;28;20273;-63
2023/07/30 04:20:49;;;;;;;4.43;2.37;;;20.30;99.90;;;;;;21000777;28;20230;-63
2023/07/30 04:30:50;;;;;;;3.00;2.70;;;20.20;99.90;;;;;;20999955;28;20207;-62
2023/07/30 04:40:52;;;;;;;5.20;3.10;;;20.10;99.90;;;;;;20999168;28;20274;-63
2023/07/30 04:50:54;;;;;;;3.03;2.20;;;20.10;99.90;;;;;;20998125;28;20599;-62
2023/07/30 05:00:56;;;;;;;6.07;2.40;;;20.10;99.90;;;;;;20998145;28;20239;-65
2023/07/30 05:10:57;;;;;;;2.90;2.10;;;20.10;99.90;;;;;;20996899;28;20248;-71
2023/07/30 05:20:59;;;;;;;2.90;2.23;;;20.20;99.90;;;;;;20995743;28;20343;-69
2023/07/30 05:31:01;;;;;;;3.70;2.00;;;20.50;99.90;;;;;;20996418;28;20217;-72
2023/07/30 05:41:03;;;;;;;2.43;2.00;;;20.70;99.90;;;;;;20995396;28;20227;-73
2023/07/30 05:51:05;;;;;;;5.43;2.17;;;20.80;99.90;;;;;;21015975;28;20208;-76
2023/07/30 06:01:07;;;;;;;5.40;2.10;;;20.90;99.90;;;;;;21010504;28;20242;-76
2023/07/30 06:11:09;;;;;;;10.83;2.20;;;21.10;99.90;;;;;;20994259;28;20231;-74
2023/07/30 06:21:10;;;;;;;3.70;2.10;;;21.10;99.90;;;;;;20993814;28;20239;-77
2023/07/30 06:31:12;;;;;;;2.70;1.93;;;21.10;99.90;;;;;;20994326;28;20571;-82
2023/07/30 06:41:14;;;;;;;3.67;2.47;;;21.30;99.90;;;;;;21097501;28;20265;-74
2023/07/30 06:51:19;;;;;;;2.97;2.77;;;21.30;99.90;;;;;;21133926;28;20278;-67
2023/07/30 07:01:21;;;;;;;4.33;2.10;;;21.30;99.90;;;;;;21082371;28;20226;-67
2023/07/30 07:11:23;;;;;;;3.77;2.00;;;21.40;99.90;;;;;;21100366;28;20242;-67
2023/07/30 07:21:26;;;;;;;3.10;2.00;;;21.60;99.90;;;;;;21131523;28;20229;-75
2023/07/30 07:31:28;;;;;;;2.03;1.77;;;21.70;99.90;;;;;;21116987;28;20556;-73
2023/07/30 07:41:29;;;;;;;2.50;1.93;;;21.80;99.90;;;;;;21082168;28;20689;-71
2023/07/30 07:51:32;;;;;;;3.00;2.40;;;22.00;99.80;;;;;;21122311;28;20668;-73
2023/07/30 08:01:33;;;;;;;2.53;2.10;;;22.10;99.00;;;;;;21023427;28;20645;-74
2023/07/30 08:11:35;;;;;;;3.50;1.80;;;22.10;97.90;;;;;;20995092;28;20231;-70
2023/07/30 08:21:37;;;;;;;2.30;1.53;;;22.20;97.40;;;;;;21078114;28;20229;-79
2023/07/30 08:31:41;;;;;;;3.20;2.33;;;22.50;96.70;;;;;;21078187;27;20213;-73
2023/07/30 08:41:43;;;;;;;2.33;1.63;;;23.00;95.80;;;;;;21006754;28;20243;-82
2023/07/30 08:51:48;;;;;;;2.40;2.20;;;23.20;94.60;;;;;;20993390;28;20208;-70
2023/07/30 09:01:52;;;;;;;2.47;1.63;;;23.50;93.30;;;;;;21045492;28;20698;-73
2023/07/30 09:11:54;;;;;;;5.40;1.60;;;23.20;92.20;;;;;;20998462;28;20724;-77
2023/07/30 09:21:56;;;;;;;3.53;2.00;;;22.90;91.80;;;;;;21086445;28;20317;-73
2023/07/30 09:31:58;;;;;;;2.10;1.30;;;22.90;91.60;;;;;;21159833;28;20202;-78
2023/07/30 09:42:00;;;;;;;2.73;1.63;;;22.70;91.80;;;;;;21167428;28;20238;-76
2023/07/30 09:52:04;;;;;;;1.90;1.60;;;22.60;92.60;;;;;;21163635;28;20292;-77
2023/07/30 10:02:08;;;;;;;3.13;1.20;;;22.40;94.00;;;;;;21162851;28;20639;-72
2023/07/30 10:12:24;;;;;;;1.47;1.30;;;22.50;94.00;;;;;;21160657;28;20349;-73
2023/07/30 10:22:26;;;;;;;1.87;1.40;;;22.60;93.60;;;;;;21159848;28;20692;-68
2023/07/30 10:32:41;;;;;;;2.20;1.40;;;22.90;93.40;;;;;;21166645;28;20198;-71
2023/07/30 10:42:44;;;;;;;3.60;2.27;;;23.30;93.30;;;;;;21176352;28;20234;-70
2023/07/30 10:52:46;;;;;;;2.30;1.80;;;23.40;92.90;;;;;;21174890;28;20208;-76
2023/07/30 11:02:54;;;;;;;3.43;2.70;;;23.40;93.10;;;;;;21175913;28;20233;-75
2023/07/30 11:12:57;;;;;;;5.53;3.53;;;23.40;92.80;;;;;;21175329;28;20242;-76
2023/07/30 11:22:59;;;;;;;3.07;2.60;;;23.50;92.90;;;;;;21173970;28;20225;-73
2023/07/30 11:33:01;;;;;;;2.37;1.80;;;23.60;91.00;;;;;;21173173;28;20636;-78
2023/07/30 11:43:04;;;;;;;1.40;1.30;;;23.20;82.60;;;;;;21097028;28;20238;-70
2023/07/30 11:53:06;;;;;;;2.30;1.17;;;23.10;79.20;;;;;;21034119;28;20297;-70
2023/07/30 12:03:14;;;;;;;0.93;0.83;;;22.90;77.50;;;;;;21002725;28;20231;-70
2023/07/30 12:13:17;;;;;;;2.10;1.20;;;23.00;78.00;;;;;;21003129;28;20242;-71
2023/07/30 12:23:20;;;;;;;1.10;1.00;;;23.20;78.00;;;;;;21001173;28;20321;-71
2023/07/30 12:33:21;;;;;;;2.37;1.00;;;23.30;77.20;;;;;;21031856;28;20302;-71
2023/07/30 12:43:24;;;;;;;2.00;1.40;;;22.80;76.50;;;;;;21010861;28;20297;-73
2023/07/30 12:53:25;;;;;;;1.57;1.30;;;22.60;76.20;;;;;;20998840;28;20215;-73
2023/07/30 13:03:27;;;;;;;3.27;1.30;;;22.80;75.30;;;;;;20998267;28;20245;-72
2023/07/30 13:13:29;;;;;;;2.43;1.33;;;23.00;73.20;;;;;;20997810;28;20288;-74
2023/07/30 13:23:31;;;;;;;5.93;1.93;;;23.20;71.40;;;;;;20996878;28;20257;-71
2023/07/30 13:33:33;;;;;;;2.97;1.30;;;23.00;70.60;;;;;;20995792;28;20659;-71
2023/07/30 13:43:35;;;;;;;3.90;1.50;;;23.20;69.50;;;;;;21026352;28;20230;-73
2023/07/30 13:53:40;;;;;;;2.13;1.30;;;23.50;67.20;;;;;;21127853;28;20260;-72
2023/07/30 14:03:43;;;;;;;3.77;1.80;;;23.20;65.10;;;;;;21114515;28;20206;-70
2023/07/30 14:13:45;;;;;;;4.63;1.50;;;23.20;64.00;;;;;;21095345;28;20238;-70
2023/07/30 14:23:47;;;;;;;5.40;1.40;;;23.10;61.10;;;;;;21167611;28;20629;-74
2023/07/30 14:33:48;;;;;;;2.77;1.27;;;23.90;59.10;;;;;;21177784;28;20216;-72
2023/07/30 14:43:50;;;;;;;3.60;1.53;;;24.50;55.90;;;;;;21177424;28;20288;-75
2023/07/30 14:53:52;;;;;;;5.57;1.40;;;24.80;55.00;;;;;;21138548;28;20242;-76
2023/07/30 15:03:54;;;;;;;5.50;1.37;;;25.60;52.70;;;;;;21093052;28;20293;-72
2023/07/30 15:13:55;;;;;;;2.93;1.33;;;25.90;50.00;;;;;;21091908;28;20209;-73
2023/07/30 15:24:00;;;;;;;1.80;1.30;;;25.10;50.30;;;;;;21089252;28;20297;-73
2023/07/30 15:34:03;;;;;;;3.33;1.30;;;25.30;51.50;;;;;;21088740;28;20281;-72
2023/07/30 15:44:05;;;;;;;5.83;1.83;;;24.50;50.70;;;;;;21054369;28;20272;-74
2023/07/30 15:54:06;;;;;;;4.03;1.33;;;24.10;50.80;;;;;;21085132;28;20202;-75
2023/07/30 16:04:08;;;;;;;4.47;1.60;;;23.70;51.20;;;;;;21170875;28;20209;-75
2023/07/30 16:14:10;;;;;;;3.57;1.43;;;23.90;52.10;;;;;;21170299;28;20316;-73
2023/07/30 16:24:11;;;;;;;5.00;1.77;;;24.00;52.30;;;;;;21129732;28;20199;-84
2023/07/30 16:34:13;;;;;;;4.00;1.60;;;23.80;52.10;;;;;;21008779;28;20321;-73
2023/07/30 16:44:15;;;;;;;4.20;1.30;;;24.00;52.50;;;;;;20999361;28;20207;-74
2023/07/30 16:54:17;;;;;;;3.73;1.60;;;24.50;52.40;;;;;;21083449;28;20228;-73
2023/07/30 17:04:19;;;;;;;3.07;1.43;;;24.50;52.20;;;;;;21166046;28;20222;-71
2023/07/30 17:14:21;;;;;;;3.47;1.47;;;24.00;52.60;;;;;;21164419;28;20234;-72
2023/07/30 17:24:22;;;;;;;3.40;1.50;;;23.20;53.90;;;;;;21164379;28;20206;-72
2023/07/30 17:34:24;;;;;;;4.60;1.50;;;23.80;53.90;;;;;;21163482;28;20230;-72
2023/07/30 17:44:26;;;;;;;6.43;1.60;;;23.50;54.80;;;;;;21163084;28;20629;-66
2023/07/30 17:54:28;;;;;;;3.40;1.50;;;24.00;53.80;;;;;;21162898;28;20236;-69
2023/07/30 18:04:30;;;;;;;6.47;1.67;;;23.60;54.50;;;;;;21162758;28;20724;-65
2023/07/30 18:14:34;;;;;;;3.90;1.80;;;23.20;55.00;;;;;;21162929;28;20696;-73
2023/07/30 18:24:36;;;;;;;8.20;1.60;;;22.80;55.70;;;;;;21067915;28;20215;-76
2023/07/30 18:34:40;;;;;;;8.33;1.93;;;22.50;56.60;;;;;;21039947;28;20231;-68
2023/07/30 18:44:42;;;;;;;7.93;1.63;;;22.30;57.20;;;;;;21008026;28;20205;-69
2023/07/30 18:54:45;;;;;;;5.50;1.70;;;22.10;57.70;;;;;;21081124;28;20291;-69
2023/07/30 19:04:46;;;;;;;5.70;1.73;;;21.90;57.80;;;;;;21089244;28;20592;-67
2023/07/30 19:14:48;;;;;;;3.90;1.57;;;21.80;58.00;;;;;;21084431;28;20231;-76
2023/07/30 19:24:50;;;;;;;3.67;1.53;;;21.50;58.00;;;;;;21109333;28;20294;-71
2023/07/30 19:34:52;;;;;;;3.23;1.50;;;21.40;57.90;;;;;;21085523;28;20277;-70
2023/07/30 19:44:54;;;;;;;3.87;1.40;;;21.30;58.00;;;;;;21086957;28;20210;-71
2023/07/30 19:54:57;;;;;;;4.77;1.80;;;21.10;58.30;;;;;;21085935;28;20772;-73
2023/07/30 20:04:59;;;;;;;3.20;1.40;;;21.10;58.50;;;;;;21057701;28;20238;-68
2023/07/30 20:15:01;;;;;;;4.53;1.50;;;21.00;58.80;;;;;;21066948;28;20597;-66
2023/07/30 20:25:03;;;;;;;4.63;1.80;;;20.80;59.50;;;;;;21083329;28;20242;-68
2023/07/30 20:35:05;;;;;;;5.67;1.73;;;20.50;59.60;;;;;;21081794;28;20239;-68
2023/07/30 20:45:07;;;;;;;5.77;1.90;;;20.40;60.80;;;;;;21081039;28;20204;-69
2023/07/30 20:55:13;;;;;;;6.33;1.80;;;20.30;61.00;;;;;;21080620;28;20233;-67
2023/07/30 21:05:15;;;;;;;2.93;1.60;;;20.40;61.80;;;;;;21079424;28;20233;-67
2023/07/30 21:15:17;;;;;;;4.40;1.57;;;20.40;61.80;;;;;;21078539;28;20240;-68
2023/07/30 21:25:19;;;;;;;3.67;1.70;;;20.40;62.20;;;;;;21079457;28;20567;-68
2023/07/30 21:35:21;;;;;;;4.53;1.80;;;20.40;62.50;;;;;;21078803;28;20234;-65
2023/07/30 21:45:22;;;;;;;4.53;1.60;;;20.40;62.70;;;;;;21079547;28;20290;-65
2023/07/30 21:55:24;;;;;;;5.80;2.17;;;20.40;63.10;;;;;;21079388;28;20233;-65
2023/07/30 22:05:26;;;;;;;4.90;1.97;;;20.40;63.40;;;;;;21078469;28;20743;-65
2023/07/30 22:15:28;;;;;;;4.97;2.00;;;20.40;64.00;;;;;;21078144;28;20719;-69
2023/07/30 22:25:30;;;;;;;6.60;2.30;;;20.40;64.40;;;;;;21079672;28;20650;-66
2023/07/30 22:35:31;;;;;;;4.37;2.00;;;20.30;64.70;;;;;;21093687;28;20240;-69
2023/07/30 22:45:33;;;;;;;5.00;1.63;;;20.40;65.10;;;;;;21093416;28;20217;-68
2023/07/30 22:55:35;;;;;;;6.67;1.87;;;20.30;65.20;;;;;;21092343;28;20325;-70
2023/07/30 23:05:37;;;;;;;2.40;1.30;;;20.30;65.60;;;;;;21091860;28;20763;-68
2023/07/30 23:15:39;;;;;;;5.03;1.60;;;20.20;66.10;;;;;;21030424;28;20262;-69
2023/07/30 23:25:40;;;;;;;5.13;1.70;;;20.20;66.50;;;;;;21006341;28;20213;-65
2023/07/30 23:35:42;;;;;;;10.00;2.33;;;20.30;66.80;;;;;;21005532;28;20245;-64
2023/07/30 23:45:44;;;;;;;10.20;1.70;;;20.20;66.90;;;;;;21004408;28;20242;-65
2023/07/30 23:55:46;;;;;;;2.60;1.50;;;20.30;67.40;;;;;;21004102;28;20254;-65
